sensor_id;sensor_type;location;lat;lon;timestamp;P1;durP1;ratioP1;P2;durP2;ratioP2
18174;SDS011;9212;50.894;16.714;2023-02-23T00:00:14;32.00;;;11.57;;
18174;SDS011;9212;50.894;16.714;2023-02-23T00:02:45;32.17;;;9.83;;
18174;SDS011;9212;50.894;16.714;2023-02-23T00:05:13;20.67;;;10.07;;
18174;SDS011;9212;50.894;16.714;2023-02-23T00:07:41;29.93;;;10.63;;
18174;SDS011;9212;50.894;16.714;2023-02-23T00:10:11;29.40;;;9.10;;
18174;SDS011;9212;50.894;16.714;2023-02-23T00:12:38;25.00;;;9.97;;
18174;SDS011;9212;50.894;16.714;2023-02-23T00:15:06;28.27;;;10.03;;
18174;SDS011;9212;50.894;16.714;2023-02-23T00:17:35;25.27;;;10.27;;
18174;SDS011;9212;50.894;16.714;2023-02-23T00:20:03;29.03;;;11.13;;
18174;SDS011;9212;50.894;16.714;2023-02-23T00:22:35;33.00;;;12.27;;
18174;SDS011;9212;50.894;16.714;2023-02-23T00:25:02;25.93;;;8.83;;
18174;SDS011;9212;50.894;16.714;2023-02-23T00:27:32;20.37;;;9.63;;
18174;SDS011;9212;50.894;16.714;2023-02-23T00:30:00;19.20;;;9.17;;
18174;SDS011;9212;50.894;16.714;2023-02-23T00:32:31;24.53;;;10.00;;
18174;SDS011;9212;50.894;16.714;2023-02-23T00:35:00;24.80;;;9.23;;
18174;SDS011;9212;50.894;16.714;2023-02-23T00:37:27;20.60;;;11.10;;
18174;SDS011;9212;50.894;16.714;2023-02-23T00:39:55;26.67;;;11.20;;
18174;SDS011;9212;50.894;16.714;2023-02-23T00:42:22;25.60;;;7.93;;
18174;SDS011;9212;50.894;16.714;2023-02-23T00:44:56;28.90;;;11.73;;
18174;SDS011;9212;50.894;16.714;2023-02-23T00:47:30;26.67;;;9.33;;
18174;SDS011;9212;50.894;16.714;2023-02-23T00:50:00;26.97;;;11.40;;
18174;SDS011;9212;50.894;16.714;2023-02-23T00:52:28;27.57;;;8.27;;
18174;SDS011;9212;50.894;16.714;2023-02-23T00:54:55;30.50;;;11.83;;
18174;SDS011;9212;50.894;16.714;2023-02-23T00:57:23;36.23;;;13.03;;
18174;SDS011;9212;50.894;16.714;2023-02-23T00:59:50;41.60;;;11.30;;
18174;SDS011;9212;50.894;16.714;2023-02-23T01:02:19;35.30;;;10.77;;
18174;SDS011;9212;50.894;16.714;2023-02-23T01:04:47;23.97;;;10.33;;
18174;SDS011;9212;50.894;16.714;2023-02-23T01:07:17;21.40;;;9.30;;
18174;SDS011;9212;50.894;16.714;2023-02-23T01:09:44;27.57;;;11.43;;
18174;SDS011;9212;50.894;16.714;2023-02-23T01:12:11;22.70;;;9.93;;
18174;SDS011;9212;50.894;16.714;2023-02-23T01:14:41;41.73;;;14.00;;
18174;SDS011;9212;50.894;16.714;2023-02-23T01:17:08;29.83;;;11.27;;
18174;SDS011;9212;50.894;16.714;2023-02-23T01:19:35;17.43;;;7.20;;
18174;SDS011;9212;50.894;16.714;2023-02-23T01:22:02;46.00;;;12.93;;
18174;SDS011;9212;50.894;16.714;2023-02-23T01:24:34;24.80;;;10.07;;
18174;SDS011;9212;50.894;16.714;2023-02-23T01:27:02;21.63;;;8.03;;
18174;SDS011;9212;50.894;16.714;2023-02-23T01:29:30;27.33;;;11.23;;
18174;SDS011;9212;50.894;16.714;2023-02-23T01:31:57;27.13;;;12.37;;
18174;SDS011;9212;50.894;16.714;2023-02-23T01:34:24;33.57;;;13.37;;
18174;SDS011;9212;50.894;16.714;2023-02-23T01:36:52;36.57;;;11.37;;
18174;SDS011;9212;50.894;16.714;2023-02-23T01:39:21;33.57;;;13.50;;
18174;SDS011;9212;50.894;16.714;2023-02-23T01:41:50;20.83;;;10.10;;
18174;SDS011;9212;50.894;16.714;2023-02-23T01:47:24;39.33;;;12.73;;
18174;SDS011;9212;50.894;16.714;2023-02-23T01:49:52;34.67;;;11.47;;
18174;SDS011;9212;50.894;16.714;2023-02-23T01:52:19;34.70;;;13.37;;
18174;SDS011;9212;50.894;16.714;2023-02-23T01:54:47;35.13;;;12.53;;
18174;SDS011;9212;50.894;16.714;2023-02-23T01:57:19;41.13;;;12.33;;
18174;SDS011;9212;50.894;16.714;2023-02-23T01:59:50;34.50;;;11.37;;
18174;SDS011;9212;50.894;16.714;2023-02-23T02:02:18;22.97;;;9.47;;
18174;SDS011;9212;50.894;16.714;2023-02-23T02:04:48;35.03;;;12.63;;
18174;SDS011;9212;50.894;16.714;2023-02-23T02:07:17;24.23;;;11.10;;
18174;SDS011;9212;50.894;16.714;2023-02-23T02:09:50;28.50;;;10.93;;
18174;SDS011;9212;50.894;16.714;2023-02-23T02:12:34;31.80;;;11.87;;
18174;SDS011;9212;50.894;16.714;2023-02-23T02:15:05;33.47;;;10.47;;
18174;SDS011;9212;50.894;16.714;2023-02-23T02:17:42;30.83;;;10.90;;
18174;SDS011;9212;50.894;16.714;2023-02-23T02:20:29;24.67;;;9.77;;
18174;SDS011;9212;50.894;16.714;2023-02-23T02:26:17;24.13;;;9.37;;
18174;SDS011;9212;50.894;16.714;2023-02-23T02:29:03;27.57;;;10.20;;
18174;SDS011;9212;50.894;16.714;2023-02-23T02:32:03;33.33;;;12.60;;
18174;SDS011;9212;50.894;16.714;2023-02-23T02:34:47;33.23;;;13.00;;
18174;SDS011;9212;50.894;16.714;2023-02-23T02:37:26;36.90;;;13.73;;
18174;SDS011;9212;50.894;16.714;2023-02-23T02:39:58;34.20;;;14.37;;
18174;SDS011;9212;50.894;16.714;2023-02-23T02:42:43;44.40;;;15.03;;
18174;SDS011;9212;50.894;16.714;2023-02-23T02:45:17;34.43;;;15.03;;
18174;SDS011;9212;50.894;16.714;2023-02-23T02:47:48;39.50;;;14.50;;
18174;SDS011;9212;50.894;16.714;2023-02-23T02:50:18;32.03;;;13.60;;
18174;SDS011;9212;50.894;16.714;2023-02-23T02:52:56;43.73;;;16.03;;
18174;SDS011;9212;50.894;16.714;2023-02-23T02:55:28;37.97;;;15.43;;
18174;SDS011;9212;50.894;16.714;2023-02-23T02:57:58;42.60;;;16.67;;
18174;SDS011;9212;50.894;16.714;2023-02-23T03:00:28;38.17;;;16.23;;
18174;SDS011;9212;50.894;16.714;2023-02-23T03:03:26;46.73;;;15.20;;
18174;SDS011;9212;50.894;16.714;2023-02-23T03:06:11;37.80;;;15.17;;
18174;SDS011;9212;50.894;16.714;2023-02-23T03:08:58;38.20;;;16.00;;
18174;SDS011;9212;50.894;16.714;2023-02-23T03:11:47;43.90;;;16.33;;
18174;SDS011;9212;50.894;16.714;2023-02-23T03:14:37;41.30;;;15.33;;
18174;SDS011;9212;50.894;16.714;2023-02-23T03:17:24;32.00;;;15.10;;
18174;SDS011;9212;50.894;16.714;2023-02-23T03:20:15;44.90;;;16.47;;
18174;SDS011;9212;50.894;16.714;2023-02-23T03:23:03;37.27;;;15.90;;
18174;SDS011;9212;50.894;16.714;2023-02-23T03:25:53;35.70;;;15.97;;
18174;SDS011;9212;50.894;16.714;2023-02-23T03:28:43;42.37;;;16.17;;
18174;SDS011;9212;50.894;16.714;2023-02-23T03:31:33;59.00;;;20.33;;
18174;SDS011;9212;50.894;16.714;2023-02-23T03:34:20;56.67;;;20.63;;
18174;SDS011;9212;50.894;16.714;2023-02-23T03:37:15;55.60;;;22.10;;
18174;SDS011;9212;50.894;16.714;2023-02-23T03:40:03;64.00;;;22.90;;
18174;SDS011;9212;50.894;16.714;2023-02-23T03:42:51;65.43;;;21.90;;
18174;SDS011;9212;50.894;16.714;2023-02-23T03:45:37;59.13;;;22.07;;
18174;SDS011;9212;50.894;16.714;2023-02-23T03:48:21;55.50;;;21.07;;
18174;SDS011;9212;50.894;16.714;2023-02-23T03:51:09;57.63;;;21.50;;
18174;SDS011;9212;50.894;16.714;2023-02-23T03:53:58;57.40;;;21.90;;
18174;SDS011;9212;50.894;16.714;2023-02-23T03:56:47;64.47;;;21.23;;
18174;SDS011;9212;50.894;16.714;2023-02-23T03:59:37;75.80;;;21.97;;
18174;SDS011;9212;50.894;16.714;2023-02-23T04:02:27;66.20;;;22.60;;
18174;SDS011;9212;50.894;16.714;2023-02-23T04:05:14;54.50;;;21.10;;
18174;SDS011;9212;50.894;16.714;2023-02-23T04:08:00;51.30;;;19.27;;
18174;SDS011;9212;50.894;16.714;2023-02-23T04:10:49;52.67;;;17.93;;
18174;SDS011;9212;50.894;16.714;2023-02-23T04:13:34;48.77;;;17.33;;
18174;SDS011;9212;50.894;16.714;2023-02-23T04:16:04;31.30;;;15.70;;
18174;SDS011;9212;50.894;16.714;2023-02-23T04:18:32;26.20;;;11.33;;
18174;SDS011;9212;50.894;16.714;2023-02-23T04:21:00;54.30;;;17.43;;
18174;SDS011;9212;50.894;16.714;2023-02-23T04:23:27;39.77;;;15.43;;
18174;SDS011;9212;50.894;16.714;2023-02-23T04:25:55;31.87;;;14.53;;
18174;SDS011;9212;50.894;16.714;2023-02-23T04:28:23;33.17;;;15.07;;
18174;SDS011;9212;50.894;16.714;2023-02-23T04:30:53;38.77;;;14.87;;
18174;SDS011;9212;50.894;16.714;2023-02-23T04:33:22;43.63;;;15.10;;
18174;SDS011;9212;50.894;16.714;2023-02-23T04:35:51;38.57;;;14.30;;
18174;SDS011;9212;50.894;16.714;2023-02-23T04:38:18;32.47;;;12.60;;
18174;SDS011;9212;50.894;16.714;2023-02-23T04:40:46;28.17;;;11.93;;
18174;SDS011;9212;50.894;16.714;2023-02-23T04:43:13;27.67;;;11.03;;
18174;SDS011;9212;50.894;16.714;2023-02-23T04:45:40;25.20;;;9.10;;
18174;SDS011;9212;50.894;16.714;2023-02-23T04:48:08;28.53;;;10.37;;
18174;SDS011;9212;50.894;16.714;2023-02-23T04:50:36;27.40;;;11.50;;
18174;SDS011;9212;50.894;16.714;2023-02-23T04:53:03;44.70;;;17.27;;
18174;SDS011;9212;50.894;16.714;2023-02-23T04:55:31;49.83;;;16.47;;
18174;SDS011;9212;50.894;16.714;2023-02-23T04:57:59;38.63;;;14.23;;
18174;SDS011;9212;50.894;16.714;2023-02-23T05:00:26;33.87;;;13.00;;
18174;SDS011;9212;50.894;16.714;2023-02-23T05:02:54;46.53;;;15.10;;
18174;SDS011;9212;50.894;16.714;2023-02-23T05:05:21;40.33;;;14.93;;
18174;SDS011;9212;50.894;16.714;2023-02-23T05:07:50;44.70;;;15.70;;
18174;SDS011;9212;50.894;16.714;2023-02-23T05:10:18;37.40;;;13.50;;
18174;SDS011;9212;50.894;16.714;2023-02-23T05:12:46;29.90;;;13.10;;
18174;SDS011;9212;50.894;16.714;2023-02-23T05:15:13;40.53;;;13.63;;
18174;SDS011;9212;50.894;16.714;2023-02-23T05:17:40;36.87;;;15.10;;
18174;SDS011;9212;50.894;16.714;2023-02-23T05:20:08;43.53;;;15.20;;
18174;SDS011;9212;50.894;16.714;2023-02-23T05:22:36;28.50;;;14.37;;
18174;SDS011;9212;50.894;16.714;2023-02-23T05:25:05;32.93;;;13.57;;
18174;SDS011;9212;50.894;16.714;2023-02-23T05:27:34;33.60;;;13.97;;
18174;SDS011;9212;50.894;16.714;2023-02-23T05:30:01;30.73;;;14.07;;
18174;SDS011;9212;50.894;16.714;2023-02-23T05:32:28;36.77;;;12.67;;
18174;SDS011;9212;50.894;16.714;2023-02-23T05:34:55;27.13;;;12.87;;
18174;SDS011;9212;50.894;16.714;2023-02-23T05:37:22;26.93;;;11.07;;
18174;SDS011;9212;50.894;16.714;2023-02-23T05:39:49;27.77;;;10.63;;
18174;SDS011;9212;50.894;16.714;2023-02-23T05:42:18;30.00;;;10.37;;
18174;SDS011;9212;50.894;16.714;2023-02-23T05:44:45;29.10;;;10.17;;
18174;SDS011;9212;50.894;16.714;2023-02-23T05:47:12;24.47;;;9.00;;
18174;SDS011;9212;50.894;16.714;2023-02-23T05:49:39;18.33;;;9.03;;
18174;SDS011;9212;50.894;16.714;2023-02-23T05:52:06;22.67;;;8.60;;
18174;SDS011;9212;50.894;16.714;2023-02-23T05:54:33;17.97;;;9.03;;
18174;SDS011;9212;50.894;16.714;2023-02-23T05:57:00;24.97;;;8.83;;
18174;SDS011;9212;50.894;16.714;2023-02-23T05:59:29;17.60;;;8.80;;
18174;SDS011;9212;50.894;16.714;2023-02-23T06:01:56;18.30;;;7.40;;
18174;SDS011;9212;50.894;16.714;2023-02-23T06:04:23;15.47;;;7.40;;
18174;SDS011;9212;50.894;16.714;2023-02-23T06:06:50;18.93;;;8.63;;
18174;SDS011;9212;50.894;16.714;2023-02-23T06:09:17;18.70;;;8.00;;
18174;SDS011;9212;50.894;16.714;2023-02-23T06:11:44;25.47;;;8.43;;
18174;SDS011;9212;50.894;16.714;2023-02-23T06:14:11;15.87;;;7.07;;
18174;SDS011;9212;50.894;16.714;2023-02-23T06:16:41;25.63;;;8.07;;
18174;SDS011;9212;50.894;16.714;2023-02-23T06:19:09;25.80;;;9.30;;
18174;SDS011;9212;50.894;16.714;2023-02-23T06:21:39;15.57;;;8.20;;
18174;SDS011;9212;50.894;16.714;2023-02-23T06:24:06;14.60;;;7.57;;
18174;SDS011;9212;50.894;16.714;2023-02-23T06:26:33;20.07;;;8.63;;
18174;SDS011;9212;50.894;16.714;2023-02-23T06:29:00;18.03;;;8.30;;
18174;SDS011;9212;50.894;16.714;2023-02-23T06:31:27;14.00;;;7.03;;
18174;SDS011;9212;50.894;16.714;2023-02-23T06:33:56;15.53;;;7.97;;
18174;SDS011;9212;50.894;16.714;2023-02-23T06:36:23;16.00;;;8.40;;
18174;SDS011;9212;50.894;16.714;2023-02-23T06:38:50;25.07;;;8.90;;
18174;SDS011;9212;50.894;16.714;2023-02-23T06:41:17;21.37;;;8.73;;
18174;SDS011;9212;50.894;16.714;2023-02-23T06:43:44;23.50;;;9.47;;
18174;SDS011;9212;50.894;16.714;2023-02-23T06:46:11;21.90;;;8.37;;
18174;SDS011;9212;50.894;16.714;2023-02-23T06:48:39;18.07;;;8.53;;
18174;SDS011;9212;50.894;16.714;2023-02-23T06:51:07;21.70;;;8.37;;
18174;SDS011;9212;50.894;16.714;2023-02-23T06:53:35;25.63;;;8.37;;
18174;SDS011;9212;50.894;16.714;2023-02-23T06:56:02;20.07;;;8.43;;
18174;SDS011;9212;50.894;16.714;2023-02-23T06:58:29;24.80;;;11.17;;
18174;SDS011;9212;50.894;16.714;2023-02-23T07:00:57;23.07;;;9.93;;
18174;SDS011;9212;50.894;16.714;2023-02-23T07:03:24;24.17;;;10.90;;
18174;SDS011;9212;50.894;16.714;2023-02-23T07:05:51;23.53;;;10.40;;
18174;SDS011;9212;50.894;16.714;2023-02-23T07:08:20;23.77;;;8.53;;
18174;SDS011;9212;50.894;16.714;2023-02-23T07:10:47;19.07;;;8.87;;
18174;SDS011;9212;50.894;16.714;2023-02-23T07:13:14;15.57;;;8.40;;
18174;SDS011;9212;50.894;16.714;2023-02-23T07:15:41;18.83;;;9.40;;
18174;SDS011;9212;50.894;16.714;2023-02-23T07:18:09;30.63;;;10.40;;
18174;SDS011;9212;50.894;16.714;2023-02-23T07:20:36;32.03;;;14.67;;
18174;SDS011;9212;50.894;16.714;2023-02-23T07:23:03;35.93;;;16.23;;
18174;SDS011;9212;50.894;16.714;2023-02-23T07:25:32;40.63;;;17.87;;
18174;SDS011;9212;50.894;16.714;2023-02-23T07:27:59;48.70;;;19.83;;
18174;SDS011;9212;50.894;16.714;2023-02-23T07:30:26;94.50;;;31.67;;
18174;SDS011;9212;50.894;16.714;2023-02-23T07:32:53;76.37;;;29.47;;
18174;SDS011;9212;50.894;16.714;2023-02-23T07:35:21;103.07;;;33.77;;
18174;SDS011;9212;50.894;16.714;2023-02-23T07:37:48;83.10;;;31.10;;
18174;SDS011;9212;50.894;16.714;2023-02-23T07:40:16;79.20;;;30.90;;
18174;SDS011;9212;50.894;16.714;2023-02-23T07:42:45;75.70;;;29.90;;
18174;SDS011;9212;50.894;16.714;2023-02-23T07:45:12;93.97;;;34.03;;
18174;SDS011;9212;50.894;16.714;2023-02-23T07:47:41;81.50;;;32.83;;
18174;SDS011;9212;50.894;16.714;2023-02-23T07:50:08;83.03;;;31.37;;
18174;SDS011;9212;50.894;16.714;2023-02-23T07:52:39;84.33;;;30.17;;
18174;SDS011;9212;50.894;16.714;2023-02-23T07:55:08;87.27;;;30.53;;
18174;SDS011;9212;50.894;16.714;2023-02-23T07:57:36;79.67;;;30.70;;
18174;SDS011;9212;50.894;16.714;2023-02-23T08:00:05;96.60;;;32.23;;
18174;SDS011;9212;50.894;16.714;2023-02-23T08:02:33;94.57;;;34.77;;
18174;SDS011;9212;50.894;16.714;2023-02-23T08:05:00;102.47;;;35.47;;
18174;SDS011;9212;50.894;16.714;2023-02-23T08:07:27;99.17;;;34.13;;
18174;SDS011;9212;50.894;16.714;2023-02-23T08:09:55;90.20;;;32.33;;
18174;SDS011;9212;50.894;16.714;2023-02-23T08:12:22;85.57;;;30.90;;
18174;SDS011;9212;50.894;16.714;2023-02-23T08:14:49;89.90;;;30.63;;
18174;SDS011;9212;50.894;16.714;2023-02-23T08:17:18;65.03;;;25.77;;
18174;SDS011;9212;50.894;16.714;2023-02-23T08:19:45;60.87;;;22.67;;
18174;SDS011;9212;50.894;16.714;2023-02-23T08:22:12;55.10;;;20.50;;
18174;SDS011;9212;50.894;16.714;2023-02-23T08:24:39;57.43;;;21.67;;
18174;SDS011;9212;50.894;16.714;2023-02-23T08:27:06;61.60;;;21.73;;
18174;SDS011;9212;50.894;16.714;2023-02-23T08:29:33;39.93;;;18.63;;
18174;SDS011;9212;50.894;16.714;2023-02-23T08:32:01;41.17;;;16.03;;
18174;SDS011;9212;50.894;16.714;2023-02-23T08:34:30;47.10;;;16.77;;
18174;SDS011;9212;50.894;16.714;2023-02-23T08:36:57;42.77;;;16.30;;
18174;SDS011;9212;50.894;16.714;2023-02-23T08:39:24;39.10;;;15.33;;
18174;SDS011;9212;50.894;16.714;2023-02-23T08:41:51;38.23;;;15.23;;
18174;SDS011;9212;50.894;16.714;2023-02-23T08:44:19;44.10;;;20.60;;
18174;SDS011;9212;50.894;16.714;2023-02-23T08:46:46;55.37;;;21.43;;
18174;SDS011;9212;50.894;16.714;2023-02-23T08:49:13;55.00;;;21.83;;
18174;SDS011;9212;50.894;16.714;2023-02-23T08:51:42;61.47;;;23.03;;
18174;SDS011;9212;50.894;16.714;2023-02-23T08:54:11;46.77;;;21.23;;
18174;SDS011;9212;50.894;16.714;2023-02-23T08:56:40;59.30;;;20.00;;
18174;SDS011;9212;50.894;16.714;2023-02-23T08:59:08;49.80;;;21.80;;
18174;SDS011;9212;50.894;16.714;2023-02-23T09:01:35;54.73;;;21.47;;
18174;SDS011;9212;50.894;16.714;2023-02-23T09:04:02;59.00;;;21.50;;
18174;SDS011;9212;50.894;16.714;2023-02-23T09:06:30;54.10;;;21.07;;
18174;SDS011;9212;50.894;16.714;2023-02-23T09:09:00;56.43;;;22.27;;
18174;SDS011;9212;50.894;16.714;2023-02-23T09:11:27;50.03;;;20.27;;
18174;SDS011;9212;50.894;16.714;2023-02-23T09:13:54;47.70;;;20.47;;
18174;SDS011;9212;50.894;16.714;2023-02-23T09:16:21;46.57;;;19.57;;
18174;SDS011;9212;50.894;16.714;2023-02-23T09:18:49;45.23;;;19.47;;
18174;SDS011;9212;50.894;16.714;2023-02-23T09:21:16;55.87;;;22.73;;
18174;SDS011;9212;50.894;16.714;2023-02-23T09:23:49;54.70;;;21.93;;
18174;SDS011;9212;50.894;16.714;2023-02-23T09:26:20;52.80;;;20.73;;
18174;SDS011;9212;50.894;16.714;2023-02-23T09:28:48;45.60;;;20.93;;
18174;SDS011;9212;50.894;16.714;2023-02-23T09:31:17;47.33;;;20.53;;
18174;SDS011;9212;50.894;16.714;2023-02-23T09:33:48;44.70;;;20.63;;
18174;SDS011;9212;50.894;16.714;2023-02-23T09:36:16;43.37;;;18.50;;
18174;SDS011;9212;50.894;16.714;2023-02-23T09:38:44;41.47;;;19.20;;
18174;SDS011;9212;50.894;16.714;2023-02-23T09:41:25;41.93;;;20.40;;
18174;SDS011;9212;50.894;16.714;2023-02-23T09:44:07;41.87;;;18.87;;
18174;SDS011;9212;50.894;16.714;2023-02-23T09:46:41;43.23;;;18.47;;
18174;SDS011;9212;50.894;16.714;2023-02-23T09:49:14;42.70;;;18.57;;
18174;SDS011;9212;50.894;16.714;2023-02-23T09:51:45;43.93;;;19.20;;
18174;SDS011;9212;50.894;16.714;2023-02-23T09:54:15;43.50;;;18.53;;
18174;SDS011;9212;50.894;16.714;2023-02-23T09:56:45;48.87;;;19.53;;
18174;SDS011;9212;50.894;16.714;2023-02-23T09:59:14;42.00;;;19.13;;
18174;SDS011;9212;50.894;16.714;2023-02-23T10:01:47;48.40;;;18.87;;
18174;SDS011;9212;50.894;16.714;2023-02-23T10:04:24;39.13;;;16.87;;
18174;SDS011;9212;50.894;16.714;2023-02-23T10:06:55;34.30;;;15.43;;
18174;SDS011;9212;50.894;16.714;2023-02-23T10:09:27;30.67;;;13.77;;
18174;SDS011;9212;50.894;16.714;2023-02-23T10:12:08;27.80;;;12.27;;
18174;SDS011;9212;50.894;16.714;2023-02-23T10:17:38;29.30;;;11.93;;
18174;SDS011;9212;50.894;16.714;2023-02-23T10:20:17;31.80;;;12.70;;
18174;SDS011;9212;50.894;16.714;2023-02-23T10:22:48;38.30;;;13.43;;
18174;SDS011;9212;50.894;16.714;2023-02-23T10:25:17;27.43;;;12.70;;
18174;SDS011;9212;50.894;16.714;2023-02-23T10:27:48;30.33;;;13.17;;
18174;SDS011;9212;50.894;16.714;2023-02-23T10:30:17;30.83;;;13.50;;
18174;SDS011;9212;50.894;16.714;2023-02-23T10:32:48;24.50;;;12.03;;
18174;SDS011;9212;50.894;16.714;2023-02-23T10:35:25;29.97;;;11.27;;
18174;SDS011;9212;50.894;16.714;2023-02-23T10:37:53;31.97;;;10.37;;
18174;SDS011;9212;50.894;16.714;2023-02-23T10:40:21;21.00;;;9.67;;
18174;SDS011;9212;50.894;16.714;2023-02-23T10:42:53;22.17;;;9.40;;
18174;SDS011;9212;50.894;16.714;2023-02-23T10:45:21;19.98;;;7.93;;
18174;SDS011;9212;50.894;16.714;2023-02-23T10:47:52;18.58;;;8.30;;
18174;SDS011;9212;50.894;16.714;2023-02-23T10:50:22;10.38;;;6.00;;
18174;SDS011;9212;50.894;16.714;2023-02-23T10:52:53;7.78;;;4.75;;
18174;SDS011;9212;50.894;16.714;2023-02-23T10:55:24;11.50;;;5.68;;
18174;SDS011;9212;50.894;16.714;2023-02-23T10:58:01;12.45;;;6.10;;
18174;SDS011;9212;50.894;16.714;2023-02-23T11:00:32;8.80;;;4.47;;
18174;SDS011;9212;50.894;16.714;2023-02-23T11:03:15;9.50;;;4.80;;
18174;SDS011;9212;50.894;16.714;2023-02-23T11:05:44;8.93;;;5.07;;
18174;SDS011;9212;50.894;16.714;2023-02-23T11:08:22;7.35;;;4.55;;
18174;SDS011;9212;50.894;16.714;2023-02-23T11:13:40;10.15;;;6.45;;
18174;SDS011;9212;50.894;16.714;2023-02-23T11:16:09;11.38;;;6.40;;
18174;SDS011;9212;50.894;16.714;2023-02-23T11:18:38;8.88;;;4.85;;
18174;SDS011;9212;50.894;16.714;2023-02-23T11:21:17;8.13;;;5.10;;
18174;SDS011;9212;50.894;16.714;2023-02-23T11:23:47;10.07;;;5.07;;
18174;SDS011;9212;50.894;16.714;2023-02-23T11:26:20;10.85;;;5.15;;
18174;SDS011;9212;50.894;16.714;2023-02-23T11:28:50;8.98;;;5.05;;
18174;SDS011;9212;50.894;16.714;2023-02-23T11:31:19;8.32;;;4.88;;
18174;SDS011;9212;50.894;16.714;2023-02-23T11:33:46;9.10;;;4.80;;
18174;SDS011;9212;50.894;16.714;2023-02-23T11:36:15;9.80;;;5.18;;
18174;SDS011;9212;50.894;16.714;2023-02-23T11:38:43;14.55;;;7.00;;
18174;SDS011;9212;50.894;16.714;2023-02-23T11:41:18;22.38;;;10.52;;
18174;SDS011;9212;50.894;16.714;2023-02-23T11:43:47;21.65;;;9.40;;
18174;SDS011;9212;50.894;16.714;2023-02-23T11:46:16;22.88;;;12.52;;
18174;SDS011;9212;50.894;16.714;2023-02-23T11:48:47;12.55;;;7.68;;
18174;SDS011;9212;50.894;16.714;2023-02-23T11:51:21;23.40;;;10.13;;
18174;SDS011;9212;50.894;16.714;2023-02-23T11:53:52;8.32;;;5.00;;
18174;SDS011;9212;50.894;16.714;2023-02-23T11:56:20;11.50;;;5.50;;
18174;SDS011;9212;50.894;16.714;2023-02-23T11:58:50;17.73;;;10.15;;
18174;SDS011;9212;50.894;16.714;2023-02-23T12:01:21;10.20;;;5.28;;
18174;SDS011;9212;50.894;16.714;2023-02-23T12:04:00;8.10;;;4.55;;
18174;SDS011;9212;50.894;16.714;2023-02-23T12:06:29;8.43;;;4.82;;
18174;SDS011;9212;50.894;16.714;2023-02-23T12:08:58;8.25;;;4.80;;
18174;SDS011;9212;50.894;16.714;2023-02-23T12:11:31;9.00;;;4.63;;
18174;SDS011;9212;50.894;16.714;2023-02-23T12:14:03;9.13;;;5.20;;
18174;SDS011;9212;50.894;16.714;2023-02-23T12:16:38;9.27;;;5.15;;
18174;SDS011;9212;50.894;16.714;2023-02-23T12:19:11;9.98;;;4.97;;
18174;SDS011;9212;50.894;16.714;2023-02-23T12:21:50;7.57;;;4.57;;
18174;SDS011;9212;50.894;16.714;2023-02-23T12:24:24;9.23;;;4.90;;
18174;SDS011;9212;50.894;16.714;2023-02-23T12:26:55;10.43;;;5.70;;
18174;SDS011;9212;50.894;16.714;2023-02-23T12:29:26;28.40;;;12.90;;
18174;SDS011;9212;50.894;16.714;2023-02-23T12:32:00;28.05;;;13.18;;
18174;SDS011;9212;50.894;16.714;2023-02-23T12:34:31;32.15;;;13.00;;
18174;SDS011;9212;50.894;16.714;2023-02-23T12:37:10;24.35;;;11.55;;
18174;SDS011;9212;50.894;16.714;2023-02-23T12:39:42;30.23;;;14.43;;
18174;SDS011;9212;50.894;16.714;2023-02-23T12:42:14;33.78;;;14.93;;
18174;SDS011;9212;50.894;16.714;2023-02-23T12:44:48;28.05;;;12.68;;
18174;SDS011;9212;50.894;16.714;2023-02-23T12:47:21;23.08;;;11.68;;
18174;SDS011;9212;50.894;16.714;2023-02-23T12:49:51;29.80;;;13.95;;
18174;SDS011;9212;50.894;16.714;2023-02-23T12:52:23;21.20;;;11.43;;
18174;SDS011;9212;50.894;16.714;2023-02-23T12:54:51;21.25;;;10.98;;
18174;SDS011;9212;50.894;16.714;2023-02-23T12:57:22;26.65;;;11.85;;
18174;SDS011;9212;50.894;16.714;2023-02-23T13:02:54;24.95;;;12.10;;
18174;SDS011;9212;50.894;16.714;2023-02-23T13:05:34;23.98;;;11.45;;
18174;SDS011;9212;50.894;16.714;2023-02-23T13:08:07;24.15;;;12.05;;
18174;SDS011;9212;50.894;16.714;2023-02-23T13:10:38;20.80;;;10.93;;
18174;SDS011;9212;50.894;16.714;2023-02-23T13:13:15;24.05;;;11.13;;
18174;SDS011;9212;50.894;16.714;2023-02-23T13:15:53;24.50;;;11.35;;
18174;SDS011;9212;50.894;16.714;2023-02-23T13:18:27;12.70;;;6.75;;
18174;SDS011;9212;50.894;16.714;2023-02-23T13:21:02;22.63;;;9.10;;
18174;SDS011;9212;50.894;16.714;2023-02-23T13:23:35;20.10;;;9.30;;
18174;SDS011;9212;50.894;16.714;2023-02-23T13:26:10;14.52;;;8.02;;
18174;SDS011;9212;50.894;16.714;2023-02-23T13:28:49;16.42;;;6.82;;
18174;SDS011;9212;50.894;16.714;2023-02-23T13:31:22;9.57;;;5.68;;
18174;SDS011;9212;50.894;16.714;2023-02-23T13:33:52;9.85;;;5.75;;
18174;SDS011;9212;50.894;16.714;2023-02-23T13:36:21;9.20;;;5.00;;
18174;SDS011;9212;50.894;16.714;2023-02-23T13:39:04;8.02;;;5.53;;
18174;SDS011;9212;50.894;16.714;2023-02-23T13:41:45;9.15;;;4.95;;
18174;SDS011;9212;50.894;16.714;2023-02-23T13:44:23;19.92;;;9.98;;
18174;SDS011;9212;50.894;16.714;2023-02-23T13:46:55;29.85;;;15.02;;
18174;SDS011;9212;50.894;16.714;2023-02-23T13:49:33;24.05;;;11.77;;
18174;SDS011;9212;50.894;16.714;2023-02-23T13:52:09;25.40;;;13.10;;
18174;SDS011;9212;50.894;16.714;2023-02-23T13:54:51;23.85;;;11.50;;
18174;SDS011;9212;50.894;16.714;2023-02-23T13:57:21;21.42;;;10.90;;
18174;SDS011;9212;50.894;16.714;2023-02-23T13:59:50;33.15;;;14.48;;
18174;SDS011;9212;50.894;16.714;2023-02-23T14:02:22;37.20;;;15.10;;
18174;SDS011;9212;50.894;16.714;2023-02-23T14:05:04;42.50;;;16.88;;
18174;SDS011;9212;50.894;16.714;2023-02-23T14:07:41;42.80;;;17.20;;
18174;SDS011;9212;50.894;16.714;2023-02-23T14:10:15;30.80;;;14.47;;
18174;SDS011;9212;50.894;16.714;2023-02-23T14:15:28;29.90;;;14.60;;
18174;SDS011;9212;50.894;16.714;2023-02-23T14:18:27;33.70;;;16.37;;
18174;SDS011;9212;50.894;16.714;2023-02-23T14:20:56;37.45;;;16.00;;
18174;SDS011;9212;50.894;16.714;2023-02-23T14:23:28;27.60;;;14.15;;
18174;SDS011;9212;50.894;16.714;2023-02-23T14:26:16;35.42;;;15.77;;
18174;SDS011;9212;50.894;16.714;2023-02-23T14:31:56;34.70;;;16.00;;
18174;SDS011;9212;50.894;16.714;2023-02-23T14:34:50;32.53;;;14.83;;
18174;SDS011;9212;50.894;16.714;2023-02-23T14:37:27;33.23;;;15.67;;
18174;SDS011;9212;50.894;16.714;2023-02-23T14:39:59;39.83;;;16.73;;
18174;SDS011;9212;50.894;16.714;2023-02-23T14:42:33;37.50;;;17.77;;
18174;SDS011;9212;50.894;16.714;2023-02-23T14:45:04;37.40;;;17.77;;
18174;SDS011;9212;50.894;16.714;2023-02-23T14:47:43;35.30;;;17.23;;
18174;SDS011;9212;50.894;16.714;2023-02-23T14:50:15;34.20;;;16.07;;
18174;SDS011;9212;50.894;16.714;2023-02-23T14:52:51;30.03;;;15.77;;
18174;SDS011;9212;50.894;16.714;2023-02-23T14:55:21;33.47;;;15.27;;
18174;SDS011;9212;50.894;16.714;2023-02-23T14:57:49;27.63;;;13.90;;
18174;SDS011;9212;50.894;16.714;2023-02-23T15:00:19;33.80;;;15.53;;
18174;SDS011;9212;50.894;16.714;2023-02-23T15:02:57;30.37;;;14.57;;
18174;SDS011;9212;50.894;16.714;2023-02-23T15:05:27;31.03;;;13.80;;
18174;SDS011;9212;50.894;16.714;2023-02-23T15:08:00;30.57;;;14.10;;
18174;SDS011;9212;50.894;16.714;2023-02-23T15:10:32;31.20;;;14.60;;
18174;SDS011;9212;50.894;16.714;2023-02-23T15:13:00;33.23;;;15.27;;